Time;durP1;ratioP1;P1;durP2;ratioP2;P2;SDS_P1;SDS_P2;PMS_P1;PMS_P2;Temp;Humidity;BMP_temperature;BMP_pressure;BME280_temperature;BME280_humidity;BME280_pressure;Samples;Min_cycle;Max_cycle;Signal;HPM_P1;HPM_P2
2023/10/28 00:01:57;;;;;;;0.90;0.90;;;;;;;;;;4100021;28;20043;-89
2023/10/28 00:04:02;;;;;;;2.55;1.30;;;;;;;;;;4115698;28;20047;-92
2023/10/28 00:06:07;;;;;;;1.10;1.00;;;;;;;;;;4116932;28;20133;-92
2023/10/28 00:08:10;;;;;;;1.48;0.93;;;;;;;;;;4116962;28;20046;-92
2023/10/28 00:10:14;;;;;;;1.75;1.00;;;;;;;;;;4109256;28;20041;-89
2023/10/28 00:12:17;;;;;;;1.05;0.98;;;;;;;;;;4108024;28;20084;-92
2023/10/28 00:14:21;;;;;;;2.85;1.38;;;;;;;;;;4109278;28;20113;-93
2023/10/28 00:16:25;;;;;;;1.23;1.00;;;;;;;;;;4115751;28;20077;-93
2023/10/28 00:18:28;;;;;;;2.95;1.08;;;;;;;;;;4116597;28;20054;-92
2023/10/28 00:20:32;;;;;;;2.90;1.20;;;;;;;;;;4116689;28;20042;-92
2023/10/28 00:22:34;;;;;;;2.72;1.10;;;;;;;;;;4115373;28;20093;-92
2023/10/28 00:24:36;;;;;;;2.63;1.00;;;;;;;;;;4116306;28;20038;-92
2023/10/28 00:26:38;;;;;;;1.10;1.00;;;;;;;;;;4115323;28;20073;-92
2023/10/28 00:28:39;;;;;;;1.75;0.90;;;;;;;;;;4116282;28;20042;-92
2023/10/28 00:30:41;;;;;;;1.77;1.30;;;;;;;;;;4116514;28;20074;-93
2023/10/28 00:32:43;;;;;;;2.00;1.27;;;;;;;;;;4116474;28;20074;-92
2023/10/28 00:34:45;;;;;;;3.75;0.80;;;;;;;;;;4115029;28;20051;-92
2023/10/28 00:36:46;;;;;;;3.00;1.25;;;;;;;;;;4116302;28;20045;-92
2023/10/28 00:38:48;;;;;;;3.67;1.33;;;;;;;;;;4116410;28;20501;-92
2023/10/28 00:40:49;;;;;;;2.00;1.13;;;;;;;;;;4115944;28;20051;-92
2023/10/28 00:42:51;;;;;;;3.67;1.20;;;;;;;;;;4114514;28;20113;-93
2023/10/28 00:44:54;;;;;;;4.30;1.53;;;;;;;;;;4116437;28;20297;-92
2023/10/28 00:46:55;;;;;;;1.15;1.05;;;;;;;;;;4116078;28;20041;-92
2023/10/28 00:48:57;;;;;;;1.45;1.08;;;;;;;;;;4099010;28;20047;-92
2023/10/28 00:50:59;;;;;;;5.50;1.20;;;;;;;;;;4115328;28;20050;-92
2023/10/28 00:53:02;;;;;;;2.35;1.00;;;;;;;;;;4114962;28;20381;-92
2023/10/28 00:55:04;;;;;;;3.70;1.23;;;;;;;;;;4114966;28;20030;-92
2023/10/28 00:57:05;;;;;;;1.85;1.35;;;;;;;;;;4116147;28;20031;-93
2023/10/28 00:59:07;;;;;;;1.77;1.10;;;;;;;;;;4115200;28;20035;-92
2023/10/28 01:01:10;;;;;;;1.75;1.30;;;;;;;;;;4116418;28;20290;-93
2023/10/28 01:03:13;;;;;;;1.30;1.15;;;;;;;;;;4128388;23;20314;-70
2023/10/28 01:05:16;;;;;;;2.95;1.00;;;;;;;;;;4098777;28;20059;-72
2023/10/28 01:07:17;;;;;;;1.25;0.93;;;;;;;;;;4116137;28;20122;-71
2023/10/28 01:09:19;;;;;;;2.35;1.00;;;;;;;;;;4115823;28;20039;-71
2023/10/28 01:11:21;;;;;;;3.95;0.95;;;;;;;;;;4121163;28;20041;-70
2023/10/28 01:13:22;;;;;;;3.13;0.90;;;;;;;;;;4125525;28;20046;-72
2023/10/28 01:15:24;;;;;;;2.97;1.30;;;;;;;;;;4121050;28;20042;-70
2023/10/28 01:17:26;;;;;;;2.25;1.30;;;;;;;;;;4115484;28;20298;-71
2023/10/28 01:19:28;;;;;;;1.00;1.00;;;;;;;;;;4117088;28;20070;-71
2023/10/28 01:21:29;;;;;;;3.30;1.20;;;;;;;;;;4098304;28;20047;-71
2023/10/28 01:23:31;;;;;;;1.37;0.90;;;;;;;;;;4121371;28;20035;-71
2023/10/28 01:25:33;;;;;;;0.93;0.90;;;;;;;;;;4117291;28;20304;-72
2023/10/28 01:27:35;;;;;;;1.50;1.00;;;;;;;;;;4115936;28;20069;-71
2023/10/28 01:29:36;;;;;;;1.42;1.30;;;;;;;;;;4115544;28;20446;-71
2023/10/28 01:31:38;;;;;;;1.95;1.25;;;;;;;;;;4115793;28;20061;-71
2023/10/28 01:33:40;;;;;;;1.88;1.05;;;;;;;;;;4116097;28;20066;-71
2023/10/28 01:35:42;;;;;;;1.10;1.00;;;;;;;;;;4115879;28;20043;-71
2023/10/28 01:37:43;;;;;;;2.67;1.08;;;;;;;;;;4129937;28;20420;-71
2023/10/28 01:39:47;;;;;;;3.90;1.48;;;;;;;;;;4123999;28;20043;-71
2023/10/28 01:41:49;;;;;;;3.63;1.10;;;;;;;;;;4130335;28;20035;-72
2023/10/28 01:43:50;;;;;;;2.50;1.67;;;;;;;;;;4131616;28;20039;-72
2023/10/28 01:45:52;;;;;;;1.73;1.10;;;;;;;;;;4131277;28;20045;-71
2023/10/28 01:47:54;;;;;;;1.65;1.13;;;;;;;;;;4124167;28;20096;-71
2023/10/28 01:49:57;;;;;;;2.35;1.10;;;;;;;;;;4116306;28;20053;-71
2023/10/28 01:51:59;;;;;;;1.63;1.10;;;;;;;;;;4123046;28;20042;-71
2023/10/28 01:54:00;;;;;;;1.37;1.00;;;;;;;;;;4122676;28;20042;-71
2023/10/28 01:56:02;;;;;;;4.97;2.03;;;;;;;;;;4123086;28;20294;-72
2023/10/28 01:58:04;;;;;;;2.80;1.65;;;;;;;;;;4123227;28;20296;-71
2023/10/28 02:00:07;;;;;;;2.22;1.38;;;;;;;;;;4113878;28;20130;-70
2023/10/28 02:02:09;;;;;;;2.67;1.92;;;;;;;;;;4107770;28;20078;-71
2023/10/28 02:04:11;;;;;;;1.85;1.20;;;;;;;;;;4112999;28;20130;-71
2023/10/28 02:06:13;;;;;;;1.25;1.20;;;;;;;;;;4115153;28;20030;-70
2023/10/28 02:08:14;;;;;;;1.20;1.10;;;;;;;;;;4114758;28;20031;-71
2023/10/28 02:10:16;;;;;;;2.55;1.42;;;;;;;;;;4115122;28;20066;-72
2023/10/28 02:12:17;;;;;;;1.60;1.50;;;;;;;;;;4115162;28;20411;-71
2023/10/28 02:14:19;;;;;;;2.47;1.00;;;;;;;;;;4110264;28;20545;-71
2023/10/28 02:16:21;;;;;;;3.80;1.00;;;;;;;;;;4097798;28;20046;-71
2023/10/28 02:18:23;;;;;;;3.65;1.40;;;;;;;;;;4114681;28;20047;-72
2023/10/28 02:20:24;;;;;;;3.23;1.10;;;;;;;;;;4114884;28;20376;-71
2023/10/28 02:22:26;;;;;;;2.30;1.00;;;;;;;;;;4108698;28;20290;-70
2023/10/28 02:24:28;;;;;;;1.30;1.20;;;;;;;;;;4114890;28;20364;-71
2023/10/28 02:26:30;;;;;;;2.28;1.23;;;;;;;;;;4115130;28;20066;-74
2023/10/28 02:28:31;;;;;;;1.52;1.13;;;;;;;;;;4114557;28;20658;-71
2023/10/28 02:30:36;;;;;;;0.95;0.95;;;;;;;;;;4118234;28;20451;-70
2023/10/28 02:32:37;;;;;;;1.25;1.10;;;;;;;;;;4114668;28;20414;-71
2023/10/28 02:34:41;;;;;;;5.70;1.10;;;;;;;;;;4114557;28;20129;-70
2023/10/28 02:36:43;;;;;;;2.80;0.90;;;;;;;;;;4114639;28;20042;-70
2023/10/28 02:38:44;;;;;;;1.57;1.47;;;;;;;;;;4114502;28;20046;-70
2023/10/28 02:40:46;;;;;;;2.40;1.00;;;;;;;;;;4114756;28;20065;-70
2023/10/28 02:42:48;;;;;;;1.27;1.08;;;;;;;;;;4114188;28;20288;-70
2023/10/28 02:44:50;;;;;;;2.33;2.13;;;;;;;;;;4112196;28;20059;-71
2023/10/28 02:46:53;;;;;;;3.13;1.45;;;;;;;;;;4107270;28;20557;-70
2023/10/28 02:48:54;;;;;;;2.83;1.10;;;;;;;;;;4114574;28;20039;-71
2023/10/28 02:51:01;;;;;;;2.50;1.20;;;;;;;;;;4114997;28;20039;-72
2023/10/28 02:53:03;;;;;;;4.28;1.10;;;;;;;;;;4114699;28;20389;-71
2023/10/28 02:55:05;;;;;;;1.73;1.23;;;;;;;;;;4114754;28;20401;-70
2023/10/28 02:57:08;;;;;;;1.67;1.27;;;;;;;;;;4114624;28;20049;-70
2023/10/28 02:59:10;;;;;;;2.55;1.10;;;;;;;;;;4114348;28;20039;-71
2023/10/28 03:01:12;;;;;;;;;;;;;;;;;;4114829;28;20360;-70
2023/10/28 03:03:13;;;;;;;3.30;1.30;;;;;;;;;;4114329;28;19922;-71
2023/10/28 03:05:15;;;;;;;2.03;1.08;;;;;;;;;;4114528;28;20521;-67
2023/10/28 03:07:17;;;;;;;3.20;1.30;;;;;;;;;;4122174;28;20446;-64
2023/10/28 03:09:19;;;;;;;4.20;1.10;;;;;;;;;;4115196;28;20064;-64
2023/10/28 03:11:20;;;;;;;5.53;1.00;;;;;;;;;;4116387;28;20508;-65
2023/10/28 03:13:22;;;;;;;1.30;1.20;;;;;;;;;;4117591;28;20053;-66
2023/10/28 03:15:24;;;;;;;1.55;1.00;;;;;;;;;;4117431;28;20049;-64
2023/10/28 03:17:26;;;;;;;4.38;1.10;;;;;;;;;;4117946;28;20123;-63
2023/10/28 03:19:28;;;;;;;4.43;1.20;;;;;;;;;;4117599;28;20070;-64
2023/10/28 03:21:29;;;;;;;6.90;1.43;;;;;;;;;;4117468;28;20049;-66
2023/10/28 03:23:31;;;;;;;3.95;1.10;;;;;;;;;;4116974;28;20631;-66
2023/10/28 03:25:33;;;;;;;1.47;1.00;;;;;;;;;;4117399;28;20031;-68
2023/10/28 03:27:34;;;;;;;1.13;1.10;;;;;;;;;;4117306;28;20298;-66
2023/10/28 03:29:36;;;;;;;2.67;1.10;;;;;;;;;;4123113;28;20039;-66
2023/10/28 03:31:38;;;;;;;2.03;0.90;;;;;;;;;;4117279;28;20109;-66
2023/10/28 03:33:40;;;;;;;2.63;1.00;;;;;;;;;;4116756;28;20050;-69
2023/10/28 03:35:41;;;;;;;1.33;1.10;;;;;;;;;;4117075;28;20115;-67
2023/10/28 03:37:44;;;;;;;1.80;1.10;;;;;;;;;;4109383;28;20047;-67
2023/10/28 03:39:46;;;;;;;3.67;1.00;;;;;;;;;;4116832;28;20430;-65
2023/10/28 03:41:48;;;;;;;2.90;1.10;;;;;;;;;;4110177;28;20063;-66
2023/10/28 03:43:49;;;;;;;2.23;1.00;;;;;;;;;;4116858;28;20093;-66
2023/10/28 03:45:51;;;;;;;1.63;1.00;;;;;;;;;;4116874;28;20334;-65
2023/10/28 03:47:53;;;;;;;2.13;1.05;;;;;;;;;;4117152;28;20072;-65
2023/10/28 03:49:55;;;;;;;2.53;1.00;;;;;;;;;;4117161;28;20038;-66
2023/10/28 03:51:58;;;;;;;2.40;1.00;;;;;;;;;;4117092;28;20122;-66
2023/10/28 03:54:00;;;;;;;1.67;1.17;;;;;;;;;;4116925;28;20039;-66
2023/10/28 03:56:02;;;;;;;2.40;1.70;;;;;;;;;;4117045;28;20042;-66
2023/10/28 03:58:04;;;;;;;;;;;;;;;;;;4117464;28;20039;-65
2023/10/28 04:00:08;;;;;;;3.55;1.65;;;;;;;;;;4116873;28;19922;-66
2023/10/28 04:02:10;;;;;;;4.85;1.40;;;;;;;;;;4116480;28;20053;-66
2023/10/28 04:04:12;;;;;;;3.00;1.20;;;;;;;;;;4115591;28;20058;-67
2023/10/28 04:06:13;;;;;;;3.65;1.98;;;;;;;;;;4111058;28;20407;-66
2023/10/28 04:08:15;;;;;;;3.17;1.13;;;;;;;;;;4116795;28;20089;-65
2023/10/28 04:10:18;;;;;;;1.65;1.30;;;;;;;;;;4116740;28;20298;-66
2023/10/28 04:12:20;;;;;;;4.03;1.50;;;;;;;;;;4116733;28;20045;-66
2023/10/28 04:14:23;;;;;;;3.33;1.35;;;;;;;;;;4114578;28;20046;-66
2023/10/28 04:16:25;;;;;;;3.40;1.92;;;;;;;;;;4113861;28;20105;-66
2023/10/28 04:18:27;;;;;;;3.40;1.30;;;;;;;;;;4114378;28;20046;-65
2023/10/28 04:20:29;;;;;;;4.27;1.30;;;;;;;;;;4116648;28;20042;-66
2023/10/28 04:22:30;;;;;;;4.70;2.05;;;;;;;;;;4116892;28;20073;-66
2023/10/28 04:24:32;;;;;;;4.60;1.50;;;;;;;;;;4116303;28;20400;-66
2023/10/28 04:26:34;;;;;;;1.73;1.43;;;;;;;;;;4123247;28;20450;-66
2023/10/28 04:28:36;;;;;;;4.33;1.53;;;;;;;;;;4116605;28;20285;-66
2023/10/28 04:30:38;;;;;;;5.93;1.58;;;;;;;;;;4116064;28;20050;-66
2023/10/28 04:32:40;;;;;;;4.93;1.30;;;;;;;;;;4116334;28;20188;-66
2023/10/28 04:34:41;;;;;;;4.07;1.23;;;;;;;;;;4116508;28;20034;-66
2023/10/28 04:36:56;;;;;;;6.90;1.75;;;;;;;;;;4116177;28;20038;-65
2023/10/28 04:38:58;;;;;;;8.30;2.17;;;;;;;;;;4115848;28;20134;-66
2023/10/28 04:40:59;;;;;;;3.00;2.40;;;;;;;;;;4116035;28;20816;-66
2023/10/28 04:43:02;;;;;;;5.43;1.70;;;;;;;;;;4116410;28;20035;-66
2023/10/28 04:45:05;;;;;;;;;;;;;;;;;;4116384;28;20533;-65
2023/10/28 04:47:07;;;;;;;4.82;2.13;;;;;;;;;;4113180;28;19922;-65
2023/10/28 04:49:10;;;;;;;3.77;1.77;;;;;;;;;;4116241;28;20494;-66
2023/10/28 04:51:12;;;;;;;5.03;1.58;;;;;;;;;;4116189;28;20083;-65
2023/10/28 04:53:14;;;;;;;4.35;1.30;;;;;;;;;;4116201;28;20050;-66
2023/10/28 04:55:16;;;;;;;3.10;2.13;;;;;;;;;;4116053;28;20105;-67
2023/10/28 04:57:17;;;;;;;5.55;1.55;;;;;;;;;;4115573;28;20411;-66
2023/10/28 04:59:19;;;;;;;4.97;1.60;;;;;;;;;;4116118;28;20050;-66
2023/10/28 05:01:21;;;;;;;4.20;1.37;;;;;;;;;;4115591;28;20090;-67
2023/10/28 05:03:22;;;;;;;4.75;1.65;;;;;;;;;;4108238;28;20051;-66
2023/10/28 05:05:24;;;;;;;3.60;1.65;;;;;;;;;;4115755;28;20039;-66
2023/10/28 05:07:26;;;;;;;5.40;1.67;;;;;;;;;;4116017;28;20129;-66
2023/10/28 05:09:28;;;;;;;7.65;1.98;;;;;;;;;;4115610;28;20227;-66
2023/10/28 05:11:30;;;;;;;;;;;;;;;;;;4116033;28;20050;-65
2023/10/28 05:13:31;;;;;;;4.03;1.20;;;;;;;;;;4115431;28;20017;-65
2023/10/28 05:15:33;;;;;;;6.30;1.70;;;;;;;;;;4115792;28;20404;-66
2023/10/28 05:17:38;;;;;;;5.82;2.15;;;;;;;;;;4115588;28;20414;-66
2023/10/28 05:19:40;;;;;;;1.95;1.85;;;;;;;;;;4115520;28;20034;-66
2023/10/28 05:21:41;;;;;;;3.92;2.15;;;;;;;;;;4115519;28;20050;-66
2023/10/28 05:23:43;;;;;;;4.38;1.63;;;;;;;;;;4115490;28;20042;-66
2023/10/28 05:25:45;;;;;;;3.50;1.67;;;;;;;;;;4111198;28;20039;-66
2023/10/28 05:27:47;;;;;;;4.88;1.48;;;;;;;;;;4111955;28;20442;-65
2023/10/28 05:29:49;;;;;;;4.72;2.22;;;;;;;;;;4094879;28;20071;-66
2023/10/28 05:31:50;;;;;;;7.27;2.30;;;;;;;;;;4115500;28;20081;-66
2023/10/28 05:33:52;;;;;;;5.75;1.75;;;;;;;;;;4112679;28;20294;-67
2023/10/28 05:35:54;;;;;;;10.95;1.48;;;;;;;;;;4110933;28;20114;-67
2023/10/28 05:37:56;;;;;;;5.67;1.70;;;;;;;;;;4114899;28;20403;-66
2023/10/28 05:39:58;;;;;;;6.20;1.42;;;;;;;;;;4115262;28;20317;-66
2023/10/28 05:42:00;;;;;;;5.00;1.83;;;;;;;;;;4115509;28;20070;-66
2023/10/28 05:44:02;;;;;;;2.70;1.30;;;;;;;;;;4114952;28;20035;-65
2023/10/28 05:46:04;;;;;;;2.88;1.63;;;;;;;;;;4114375;28;20045;-66
2023/10/28 05:48:06;;;;;;;10.20;2.55;;;;;;;;;;4110898;28;20494;-65
2023/10/28 05:50:08;;;;;;;;;;;;;;;;;;4108990;28;20039;-64
2023/10/28 05:52:12;;;;;;;4.72;1.73;;;;;;;;;;4114949;28;20491;-64
2023/10/28 05:54:14;;;;;;;5.30;2.42;;;;;;;;;;4115236;28;20043;-65
2023/10/28 05:56:17;;;;;;;4.07;1.93;;;;;;;;;;4115292;28;20376;-64
2023/10/28 05:58:19;;;;;;;2.70;2.30;;;;;;;;;;4097980;28;20385;-65
2023/10/28 06:00:21;;;;;;;4.05;2.22;;;;;;;;;;4114374;28;20046;-65
2023/10/28 06:02:24;;;;;;;7.00;1.73;;;;;;;;;;4109762;28;20101;-65
2023/10/28 06:04:26;;;;;;;6.63;2.22;;;;;;;;;;4113971;28;20062;-66
2023/10/28 06:06:28;;;;;;;4.82;2.00;;;;;;;;;;4112980;28;20415;-65
2023/10/28 06:08:30;;;;;;;6.43;1.92;;;;;;;;;;4114777;28;20074;-65
2023/10/28 06:10:34;;;;;;;8.47;1.70;;;;;;;;;;4113236;28;20494;-65
2023/10/28 06:12:37;;;;;;;3.65;1.70;;;;;;;;;;4095948;28;20047;-65
2023/10/28 06:14:40;;;;;;;11.43;2.30;;;;;;;;;;4108954;28;20129;-66
2023/10/28 06:16:43;;;;;;;4.57;1.98;;;;;;;;;;4111229;28;20121;-66
2023/10/28 06:18:48;;;;;;;2.88;1.40;;;;;;;;;;4112059;28;20043;-64
2023/10/28 06:20:49;;;;;;;4.28;1.95;;;;;;;;;;4114293;28;20038;-66
2023/10/28 06:22:52;;;;;;;4.90;1.70;;;;;;;;;;4107292;28;20050;-66
2023/10/28 06:24:54;;;;;;;2.65;1.65;;;;;;;;;;4114532;28;20113;-65
2023/10/28 06:26:57;;;;;;;3.53;1.45;;;;;;;;;;4113981;28;20043;-65
2023/10/28 06:28:59;;;;;;;4.18;1.70;;;;;;;;;;4109355;28;20097;-65
2023/10/28 06:31:01;;;;;;;6.20;1.80;;;;;;;;;;4114519;28;20082;-65
2023/10/28 06:33:02;;;;;;;1.98;1.52;;;;;;;;;;4113543;28;20047;-65
2023/10/28 06:35:05;;;;;;;4.88;1.48;;;;;;;;;;4114439;28;20051;-65
2023/10/28 06:37:06;;;;;;;2.83;1.58;;;;;;;;;;4115107;28;20043;-65
2023/10/28 06:39:11;;;;;;;5.73;2.17;;;;;;;;;;4097655;28;20070;-64
2023/10/28 06:41:12;;;;;;;4.57;2.08;;;;;;;;;;4117189;28;20042;-66
2023/10/28 06:43:14;;;;;;;6.72;3.13;;;;;;;;;;4118555;28;20045;-65
2023/10/28 06:45:17;;;;;;;1.55;1.20;;;;;;;;;;4118263;28;20070;-64
2023/10/28 06:47:20;;;;;;;1.55;1.45;;;;;;;;;;4107456;28;20082;-65
2023/10/28 06:49:22;;;;;;;3.03;1.20;;;;;;;;;;4102188;29;20055;-65
2023/10/28 06:51:23;;;;;;;3.83;1.70;;;;;;;;;;4102404;29;20419;-65
2023/10/28 06:53:25;;;;;;;7.07;2.00;;;;;;;;;;4102242;29;20043;-65
2023/10/28 06:55:27;;;;;;;1.58;1.40;;;;;;;;;;4102253;28;20126;-66
2023/10/28 06:57:30;;;;;;;3.17;1.20;;;;;;;;;;4102211;29;20075;-66
2023/10/28 06:59:34;;;;;;;6.43;1.70;;;;;;;;;;4107719;28;20105;-65
2023/10/28 07:01:36;;;;;;;4.18;1.25;;;;;;;;;;4118227;28;20067;-65
2023/10/28 07:03:37;;;;;;;7.03;1.30;;;;;;;;;;4117758;28;20042;-65
2023/10/28 07:05:39;;;;;;;5.13;1.80;;;;;;;;;;4118153;28;20074;-65
2023/10/28 07:07:41;;;;;;;2.85;1.48;;;;;;;;;;4118139;28;20039;-65
2023/10/28 07:09:43;;;;;;;2.63;1.10;;;;;;;;;;4100524;29;20483;-65
2023/10/28 07:11:44;;;;;;;2.95;1.40;;;;;;;;;;4117922;28;20047;-65
2023/10/28 07:13:46;;;;;;;1.23;1.13;;;;;;;;;;4117892;28;20046;-65
2023/10/28 07:15:48;;;;;;;3.50;1.30;;;;;;;;;;4133477;28;20348;-65
2023/10/28 07:17:50;;;;;;;8.53;1.10;;;;;;;;;;4134146;28;20065;-66
2023/10/28 07:19:52;;;;;;;1.92;1.70;;;;;;;;;;4134083;28;20549;-65
2023/10/28 07:21:54;;;;;;;;;;;;;;;;;;4134276;28;20045;-65
2023/10/28 07:23:57;;;;;;;4.22;1.70;;;;;;;;;;4133780;28;19922;-66
2023/10/28 07:25:59;;;;;;;1.20;1.00;;;;;;;;;;4133928;28;20076;-65
2023/10/28 07:28:01;;;;;;;4.90;1.40;;;;;;;;;;4133720;28;20088;-65
2023/10/28 07:30:03;;;;;;;;;;;;;;;;;;4131326;28;20491;-65
2023/10/28 07:32:06;;;;;;;3.45;1.33;;;;;;;;;;4117615;28;20382;-65
2023/10/28 07:34:07;;;;;;;5.15;1.17;;;;;;;;;;4115896;28;20066;-56
2023/10/28 07:36:09;;;;;;;2.90;1.70;;;;;;;;;;4116283;28;20061;-57
2023/10/28 07:38:12;;;;;;;10.35;1.65;;;;;;;;;;4116496;28;20101;-57
2023/10/28 07:40:15;;;;;;;2.75;1.10;;;;;;;;;;4116727;28;20047;-56
2023/10/28 07:42:17;;;;;;;1.95;1.10;;;;;;;;;;4116736;28;20106;-56
2023/10/28 07:44:18;;;;;;;2.50;1.30;;;;;;;;;;4117380;28;20554;-56
2023/10/28 07:46:20;;;;;;;7.85;1.45;;;;;;;;;;4117316;28;20038;-56
2023/10/28 07:48:22;;;;;;;4.28;1.10;;;;;;;;;;4115895;28;20130;-56
2023/10/28 07:50:24;;;;;;;5.32;1.17;;;;;;;;;;4117321;28;20047;-56
2023/10/28 07:52:26;;;;;;;4.93;1.40;;;;;;;;;;4116439;28;20051;-56
2023/10/28 07:54:27;;;;;;;4.07;1.58;;;;;;;;;;4117241;28;20046;-57
2023/10/28 07:56:29;;;;;;;7.03;1.42;;;;;;;;;;4117376;28;20051;-56
2023/10/28 07:58:31;;;;;;;3.90;1.40;;;;;;;;;;4116522;28;20097;-57
2023/10/28 08:00:34;;;;;;;3.30;1.45;;;;;;;;;;4100107;28;20043;-58
2023/10/28 08:02:36;;;;;;;3.28;1.50;;;;;;;;;;4115928;28;20035;-56
2023/10/28 08:04:37;;;;;;;2.30;1.00;;;;;;;;;;4115604;28;20065;-57
2023/10/28 08:06:40;;;;;;;4.63;1.20;;;;;;;;;;4116662;28;20090;-56
2023/10/28 08:08:42;;;;;;;7.10;1.30;;;;;;;;;;4116017;28;20082;-56
2023/10/28 08:10:45;;;;;;;5.00;2.00;;;;;;;;;;4118215;28;20050;-57
2023/10/28 08:12:48;;;;;;;1.98;1.10;;;;;;;;;;4116878;28;20047;-56
2023/10/28 08:14:50;;;;;;;3.78;1.20;;;;;;;;;;4116128;28;20039;-57
2023/10/28 08:16:51;;;;;;;5.67;1.40;;;;;;;;;;4116228;28;20066;-57
2023/10/28 08:18:54;;;;;;;4.45;1.75;;;;;;;;;;4116493;28;20054;-57
2023/10/28 08:20:57;;;;;;;2.20;1.17;;;;;;;;;;4115502;28;20043;-56
2023/10/28 08:22:58;;;;;;;3.63;1.20;;;;;;;;;;4098423;28;20130;-56
2023/10/28 08:25:00;;;;;;;2.60;1.02;;;;;;;;;;4115685;28;20039;-57
2023/10/28 08:27:02;;;;;;;7.35;1.65;;;;;;;;;;4098599;29;20051;-56
2023/10/28 08:29:04;;;;;;;;;;;;;;;;;;4116100;28;20031;-56
2023/10/28 08:31:07;;;;;;;7.18;1.20;;;;;;;;;;4095202;29;20469;-56
2023/10/28 08:33:09;;;;;;;5.40;1.10;;;;;;;;;;4114899;28;20510;-56
2023/10/28 08:35:10;;;;;;;2.30;1.63;;;;;;;;;;4116482;28;20113;-56
2023/10/28 08:37:13;;;;;;;3.83;1.52;;;;;;;;;;4116221;28;20058;-57
2023/10/28 08:39:15;;;;;;;3.42;1.38;;;;;;;;;;4116424;28;20035;-57
2023/10/28 08:41:21;;;;;;;3.65;1.20;;;;;;;;;;4116621;28;20066;-56
2023/10/28 08:43:25;;;;;;;10.65;1.30;;;;;;;;;;4116417;28;20050;-56
2023/10/28 08:45:27;;;;;;;2.15;1.25;;;;;;;;;;4113110;28;20521;-56
2023/10/28 08:47:31;;;;;;;4.82;1.20;;;;;;;;;;4105290;28;20034;-56
2023/10/28 08:49:36;;;;;;;3.22;1.35;;;;;;;;;;4102148;28;20048;-57
2023/10/28 08:51:41;;;;;;;8.38;2.40;;;;;;;;;;4116707;28;20047;-56
2023/10/28 08:53:44;;;;;;;5.57;2.08;;;;;;;;;;4115379;28;20482;-56
2023/10/28 08:55:49;;;;;;;5.97;1.65;;;;;;;;;;4116014;28;20039;-56
2023/10/28 08:57:52;;;;;;;12.95;1.67;;;;;;;;;;4116593;28;20074;-56
2023/10/28 08:59:53;;;;;;;5.93;1.00;;;;;;;;;;4097361;28;20050;-56
2023/10/28 09:02:00;;;;;;;1.85;1.33;;;;;;;;;;4113859;28;20082;-57
2023/10/28 09:04:05;;;;;;;11.88;2.08;;;;;;;;;;4096596;28;20531;-57
2023/10/28 09:06:07;;;;;;;6.18;1.90;;;;;;;;;;4115110;28;20042;-57
2023/10/28 09:08:09;;;;;;;5.70;1.65;;;;;;;;;;4115261;28;20035;-56
2023/10/28 09:10:11;;;;;;;7.55;1.50;;;;;;;;;;4114232;28;20046;-57
2023/10/28 09:12:12;;;;;;;3.33;1.50;;;;;;;;;;4113859;28;20502;-57
2023/10/28 09:14:14;;;;;;;3.28;1.58;;;;;;;;;;4114825;28;20066;-57
2023/10/28 09:16:16;;;;;;;3.22;1.20;;;;;;;;;;4113847;28;20122;-57
2023/10/28 09:18:18;;;;;;;4.38;1.52;;;;;;;;;;4115217;28;20102;-57
2023/10/28 09:20:21;;;;;;;10.38;2.05;;;;;;;;;;4114221;28;20042;-57
2023/10/28 09:22:24;;;;;;;2.47;1.17;;;;;;;;;;4115638;28;20049;-56
2023/10/28 09:24:25;;;;;;;;;;;;;;;;;;4107700;28;20410;-57
2023/10/28 09:26:28;;;;;;;3.92;1.40;;;;;;;;;;4114626;28;19968;-57
2023/10/28 09:28:30;;;;;;;3.65;1.42;;;;;;;;;;4098455;28;20102;-56
2023/10/28 09:30:42;;;;;;;1.80;1.30;;;;;;;;;;4112838;28;20054;-56
2023/10/28 09:32:44;;;;;;;3.63;1.40;;;;;;;;;;4115775;28;20047;-57
2023/10/28 09:34:46;;;;;;;8.82;2.05;;;;;;;;;;4115309;28;20046;-57
2023/10/28 09:36:48;;;;;;;4.80;1.00;;;;;;;;;;4114809;28;20054;-57
2023/10/28 09:38:53;;;;;;;5.75;1.65;;;;;;;;;;4113674;28;20046;-58
2023/10/28 09:40:56;;;;;;;4.82;1.10;;;;;;;;;;4113545;28;20047;-57
2023/10/28 09:42:58;;;;;;;4.78;1.30;;;;;;;;;;4114911;28;20043;-58
2023/10/28 09:45:09;;;;;;;2.33;1.30;;;;;;;;;;4114183;28;20101;-57
2023/10/28 09:47:13;;;;;;;2.92;1.10;;;;;;;;;;4115380;28;20045;-57
2023/10/28 09:49:16;;;;;;;2.20;1.17;;;;;;;;;;4115081;28;20038;-58
2023/10/28 09:51:20;;;;;;;3.85;1.10;;;;;;;;;;4115523;28;20570;-58
2023/10/28 09:53:33;;;;;;;6.57;1.73;;;;;;;;;;4113163;28;20089;-58
2023/10/28 09:55:35;;;;;;;5.03;1.10;;;;;;;;;;4109770;28;20049;-57
2023/10/28 09:57:39;;;;;;;1.98;1.33;;;;;;;;;;4108593;28;20047;-57
2023/10/28 09:59:44;;;;;;;2.30;1.02;;;;;;;;;;4113024;28;20101;-58
2023/10/28 10:02:01;;;;;;;2.42;0.90;;;;;;;;;;4114684;28;20494;-56
2023/10/28 10:04:22;;;;;;;4.47;1.42;;;;;;;;;;4112060;28;20074;-57
2023/10/28 10:06:25;;;;;;;1.52;1.00;;;;;;;;;;4113122;28;20074;-57
2023/10/28 10:08:27;;;;;;;2.97;1.10;;;;;;;;;;4114241;28;20073;-56
2023/10/28 10:10:28;;;;;;;11.60;1.25;;;;;;;;;;4096452;28;20036;-57
2023/10/28 10:12:33;;;;;;;3.70;1.10;;;;;;;;;;4113257;28;20058;-56
2023/10/28 10:14:37;;;;;;;2.33;1.20;;;;;;;;;;4113011;28;20458;-57
2023/10/28 10:16:45;;;;;;;2.15;1.15;;;;;;;;;;4114148;28;20043;-56
2023/10/28 10:18:49;;;;;;;4.00;1.10;;;;;;;;;;4109851;28;20051;-57
2023/10/28 10:20:59;;;;;;;3.22;1.10;;;;;;;;;;4114286;28;20569;-58
2023/10/28 10:23:02;;;;;;;1.20;1.10;;;;;;;;;;4113945;28;20051;-58
2023/10/28 10:25:04;;;;;;;;;;;;;;;;;;4113870;28;20042;-68
2023/10/28 10:27:05;;;;;;;2.13;1.50;;;;;;;;;;4096432;29;19954;-69
2023/10/28 10:29:08;;;;;;;4.60;1.02;;;;;;;;;;4114031;28;20411;-69
2023/10/28 10:31:10;;;;;;;3.53;1.00;;;;;;;;;;4114328;28;20047;-69
2023/10/28 10:33:12;;;;;;;4.50;1.50;;;;;;;;;;4112567;28;20050;-69
2023/10/28 10:35:34;;;;;;;5.13;1.40;;;;;;;;;;4112643;28;20041;-69
2023/10/28 10:37:35;;;;;;;2.10;1.07;;;;;;;;;;4110143;28;20039;-69
2023/10/28 10:39:43;;;;;;;3.00;1.05;;;;;;;;;;4113098;28;20039;-66
2023/10/28 10:41:49;;;;;;;3.13;1.25;;;;;;;;;;4112847;28;20066;-68
2023/10/28 10:43:51;;;;;;;2.92;1.00;;;;;;;;;;4114145;28;20053;-68
2023/10/28 10:45:53;;;;;;;1.27;0.90;;;;;;;;;;4114245;28;20566;-68
2023/10/28 10:47:55;;;;;;;1.40;1.00;;;;;;;;;;4114901;28;20042;-67
2023/10/28 10:49:58;;;;;;;3.08;0.90;;;;;;;;;;4115075;28;20039;-68
2023/10/28 10:52:03;;;;;;;1.38;0.90;;;;;;;;;;4111514;28;20090;-68
2023/10/28 10:54:05;;;;;;;1.85;0.98;;;;;;;;;;4113177;28;20046;-69
2023/10/28 10:56:17;;;;;;;2.50;1.00;;;;;;;;;;4108064;28;20039;-68
2023/10/28 10:58:19;;;;;;;1.20;0.85;;;;;;;;;;4115275;28;20043;-69
2023/10/28 11:00:21;;;;;;;2.20;1.10;;;;;;;;;;4114986;28;20127;-69
2023/10/28 11:02:23;;;;;;;7.43;1.00;;;;;;;;;;4114918;28;20041;-68
2023/10/28 11:04:25;;;;;;;2.08;1.23;;;;;;;;;;4111542;28;20458;-68
2023/10/28 11:06:27;;;;;;;0.85;0.85;;;;;;;;;;4112012;28;20432;-68
2023/10/28 11:08:31;;;;;;;1.80;0.90;;;;;;;;;;4112174;28;20043;-69
2023/10/28 11:10:33;;;;;;;1.90;0.80;;;;;;;;;;4114255;28;20039;-68
2023/10/28 11:12:35;;;;;;;2.65;1.00;;;;;;;;;;4114156;28;20540;-68
2023/10/28 11:14:37;;;;;;;1.25;0.70;;;;;;;;;;4114754;28;20071;-69
2023/10/28 11:16:39;;;;;;;0.70;0.70;;;;;;;;;;4104855;28;20047;-66
2023/10/28 11:18:43;;;;;;;1.80;0.80;;;;;;;;;;4111328;28;20127;-67
2023/10/28 11:20:45;;;;;;;1.98;0.70;;;;;;;;;;4106333;28;20066;-66
2023/10/28 11:22:47;;;;;;;2.05;0.70;;;;;;;;;;4113992;28;20035;-67
2023/10/28 11:24:55;;;;;;;0.85;0.70;;;;;;;;;;4106220;28;20487;-67
2023/10/28 11:26:57;;;;;;;0.93;0.68;;;;;;;;;;4113937;28;20034;-66
2023/10/28 11:29:00;;;;;;;0.70;0.70;;;;;;;;;;4117354;28;20049;-65
2023/10/28 11:31:04;;;;;;;2.72;0.90;;;;;;;;;;4116236;28;20039;-66
2023/10/28 11:33:08;;;;;;;1.67;0.60;;;;;;;;;;4115724;28;20046;-66
2023/10/28 11:35:11;;;;;;;0.82;0.70;;;;;;;;;;4115168;28;20558;-66
2023/10/28 11:37:13;;;;;;;0.70;0.70;;;;;;;;;;4117595;28;20058;-65
2023/10/28 11:39:15;;;;;;;0.75;0.75;;;;;;;;;;4116043;28;20118;-67
2023/10/28 11:41:16;;;;;;;1.05;0.60;;;;;;;;;;4117234;28;20169;-65
2023/10/28 11:43:18;;;;;;;0.73;0.70;;;;;;;;;;4116667;28;20131;-66
2023/10/28 11:45:20;;;;;;;1.27;0.75;;;;;;;;;;4117128;28;20043;-66
2023/10/28 11:47:23;;;;;;;0.95;0.90;;;;;;;;;;4113264;28;20053;-65
2023/10/28 11:49:24;;;;;;;0.80;0.80;;;;;;;;;;4100987;28;20051;-66
2023/10/28 11:51:27;;;;;;;0.80;0.80;;;;;;;;;;4115925;28;20035;-66
2023/10/28 11:53:29;;;;;;;0.70;0.70;;;;;;;;;;4115686;28;20492;-67
2023/10/28 11:55:31;;;;;;;0.80;0.80;;;;;;;;;;4116099;28;20042;-66
2023/10/28 11:57:33;;;;;;;1.13;1.13;;;;;;;;;;4116508;28;20038;-66
2023/10/28 11:59:35;;;;;;;0.70;0.70;;;;;;;;;;4115888;28;20043;-66
2023/10/28 12:01:37;;;;;;;;;;;;;;;;;;4112781;28;20093;-66
2023/10/28 12:03:38;;;;;;;0.70;0.70;;;;;;;;;;4116624;28;19921;-66
2023/10/28 12:05:40;;;;;;;0.60;0.60;;;;;;;;;;4117353;28;20043;-66
2023/10/28 12:07:42;;;;;;;0.70;0.70;;;;;;;;;;4116687;28;20379;-65
2023/10/28 12:09:45;;;;;;;0.70;0.70;;;;;;;;;;4102998;28;20043;-67
2023/10/28 12:11:49;;;;;;;1.33;0.60;;;;;;;;;;4117237;28;20049;-67
2023/10/28 12:13:51;;;;;;;0.60;0.60;;;;;;;;;;4116855;28;20074;-66
2023/10/28 12:15:52;;;;;;;0.70;0.70;;;;;;;;;;4112035;28;20597;-67
2023/10/28 12:17:54;;;;;;;1.33;0.68;;;;;;;;;;4116625;28;20047;-66